TW-0003 weather

CLOSED Highway Strip 58 60
Johngli City, Taoyuan County, Taiwan

Public forecast

Using degrees Celsius for public forecast. Weather courtesy of forecast.io.

Closest aviation weather report (METAR) to Highway Strip 58 60

Closest report is Taiwan Taoyuan International Airport, 6.1 nm (11.3 km) N. Retrieved 2020/02/17 06:30 UTC (0 seconds ago):

RCTP 170630Z 05021KT 9999 FEW020 12/02 Q1027 NOSIG RMK A3035

Closest aviation forecast (TAF) to Highway Strip 58 60

Closest forecast is Taiwan Taoyuan International Airport, 6.1 nm (11.3 km) N. Retrieved 2020/02/17 06:00 UTC (25 minutes ago):

TAF RCTP 170500Z 1706/1812 04020KT 9999 FEW015 BKN032 TEMPO 1706/1710 05022G32KT TEMPO 1718/1724 03012KT TEMPO 1802/1808 05022G32KT